sensor_id;sensor_type;location;lat;lon;timestamp;pressure;altitude;pressure_sealevel;temperature;humidity
18900;BME280;9582;52.018;6.306;2023-11-18T00:00:21;103390.91;;;4.07;100.00
18900;BME280;9582;52.018;6.306;2023-11-18T00:02:48;103357.25;;;4.07;100.00
18900;BME280;9582;52.018;6.306;2023-11-18T00:05:15;103363.31;;;4.08;100.00
18900;BME280;9582;52.018;6.306;2023-11-18T00:07:41;103354.72;;;4.09;100.00
18900;BME280;9582;52.018;6.306;2023-11-18T00:10:09;103371.16;;;4.13;100.00
18900;BME280;9582;52.018;6.306;2023-11-18T00:12:35;103372.91;;;4.14;100.00
18900;BME280;9582;52.018;6.306;2023-11-18T00:15:05;103378.97;;;4.14;100.00
18900;BME280;9582;52.018;6.306;2023-11-18T00:17:33;103377.28;;;4.15;100.00
18900;BME280;9582;52.018;6.306;2023-11-18T00:20:00;103385.88;;;4.15;100.00
18900;BME280;9582;52.018;6.306;2023-11-18T00:22:28;103383.28;;;4.15;100.00
18900;BME280;9582;52.018;6.306;2023-11-18T00:24:54;103382.41;;;4.13;100.00
18900;BME280;9582;52.018;6.306;2023-11-18T00:27:21;103393.66;;;4.15;100.00
18900;BME280;9582;52.018;6.306;2023-11-18T00:29:50;103385.03;;;4.15;100.00
18900;BME280;9582;52.018;6.306;2023-11-18T00:32:19;103377.28;;;4.16;100.00
18900;BME280;9582;52.018;6.306;2023-11-18T00:34:46;103366.13;;;4.19;100.00
18900;BME280;9582;52.018;6.306;2023-11-18T00:37:12;103363.59;;;4.22;100.00
18900;BME280;9582;52.018;6.306;2023-11-18T00:39:39;103362.78;;;4.23;100.00
18900;BME280;9582;52.018;6.306;2023-11-18T00:42:06;103242.81;;;4.25;100.00
18900;BME280;9582;52.018;6.306;2023-11-18T00:44:33;103235.94;;;4.27;100.00
18900;BME280;9582;52.018;6.306;2023-11-18T00:46:59;103239.44;;;4.29;100.00
18900;BME280;9582;52.018;6.306;2023-11-18T00:49:27;103254.22;;;4.33;100.00
18900;BME280;9582;52.018;6.306;2023-11-18T00:51:53;103235.25;;;4.36;100.00
18900;BME280;9582;52.018;6.306;2023-11-18T00:54:20;103244.81;;;4.38;100.00
18900;BME280;9582;52.018;6.306;2023-11-18T00:56:47;103261.28;;;4.42;100.00
18900;BME280;9582;52.018;6.306;2023-11-18T00:59:14;103275.13;;;4.42;100.00
18900;BME280;9582;52.018;6.306;2023-11-18T01:01:40;103269.13;;;4.46;100.00
18900;BME280;9582;52.018;6.306;2023-11-18T01:04:06;103265.72;;;4.47;100.00
18900;BME280;9582;52.018;6.306;2023-11-18T01:06:34;103254.53;;;4.50;100.00
18900;BME280;9582;52.018;6.306;2023-11-18T01:09:00;103257.16;;;4.51;100.00
18900;BME280;9582;52.018;6.306;2023-11-18T01:11:27;103258.06;;;4.55;100.00
18900;BME280;9582;52.018;6.306;2023-11-18T01:13:54;103267.63;;;4.57;100.00
18900;BME280;9582;52.018;6.306;2023-11-18T01:16:21;103268.53;;;4.59;100.00
18900;BME280;9582;52.018;6.306;2023-11-18T01:18:49;103290.22;;;4.64;100.00
18900;BME280;9582;52.018;6.306;2023-11-18T01:21:16;103295.47;;;4.68;100.00
18900;BME280;9582;52.018;6.306;2023-11-18T01:23:44;103299.03;;;4.73;100.00
18900;BME280;9582;52.018;6.306;2023-11-18T01:26:11;103292.13;;;4.75;100.00
18900;BME280;9582;52.018;6.306;2023-11-18T01:28:38;103304.28;;;4.77;100.00
18900;BME280;9582;52.018;6.306;2023-11-18T01:31:07;103310.34;;;4.78;100.00
18900;BME280;9582;52.018;6.306;2023-11-18T01:33:35;103311.25;;;4.80;100.00
18900;BME280;9582;52.018;6.306;2023-11-18T01:36:06;103306.97;;;4.82;100.00
18900;BME280;9582;52.018;6.306;2023-11-18T01:38:33;103325.19;;;4.85;100.00
18900;BME280;9582;52.018;6.306;2023-11-18T01:41:01;103316.53;;;4.86;100.00
18900;BME280;9582;52.018;6.306;2023-11-18T01:43:28;103326.94;;;4.87;100.00
18900;BME280;9582;52.018;6.306;2023-11-18T01:45:57;103340.84;;;4.91;100.00
18900;BME280;9582;52.018;6.306;2023-11-18T01:48:27;103334.78;;;4.90;100.00
18900;BME280;9582;52.018;6.306;2023-11-18T01:50:56;103340.03;;;4.93;100.00
18900;BME280;9582;52.018;6.306;2023-11-18T01:53:24;103328.75;;;4.91;100.00
18900;BME280;9582;52.018;6.306;2023-11-18T01:55:51;103324.41;;;4.90;100.00
18900;BME280;9582;52.018;6.306;2023-11-18T01:58:19;103326.13;;;4.90;100.00
18900;BME280;9582;52.018;6.306;2023-11-18T02:00:49;103338.16;;;4.86;100.00
18900;BME280;9582;52.018;6.306;2023-11-18T02:03:17;103326.00;;;4.84;100.00
18900;BME280;9582;52.018;6.306;2023-11-18T02:05:44;103318.19;;;4.81;100.00
18900;BME280;9582;52.018;6.306;2023-11-18T02:08:11;103341.50;;;4.79;100.00
18900;BME280;9582;52.018;6.306;2023-11-18T02:10:46;103350.94;;;4.77;100.00
18900;BME280;9582;52.018;6.306;2023-11-18T02:13:22;103342.25;;;4.74;100.00
18900;BME280;9582;52.018;6.306;2023-11-18T02:15:52;103340.47;;;4.71;100.00
18900;BME280;9582;52.018;6.306;2023-11-18T02:18:20;103331.75;;;4.68;100.00
18900;BME280;9582;52.018;6.306;2023-11-18T02:20:48;103330.88;;;4.68;100.00
18900;BME280;9582;52.018;6.306;2023-11-18T02:23:16;103342.06;;;4.64;100.00
18900;BME280;9582;52.018;6.306;2023-11-18T02:25:45;103332.56;;;4.65;100.00
18900;BME280;9582;52.018;6.306;2023-11-18T02:28:13;103340.31;;;4.63;100.00
18900;BME280;9582;52.018;6.306;2023-11-18T02:30:40;103339.41;;;4.63;100.00
18900;BME280;9582;52.018;6.306;2023-11-18T02:33:14;103343.72;;;4.61;100.00
18900;BME280;9582;52.018;6.306;2023-11-18T02:35:46;103353.19;;;4.60;100.00
18900;BME280;9582;52.018;6.306;2023-11-18T02:38:16;103346.25;;;4.58;100.00
18900;BME280;9582;52.018;6.306;2023-11-18T02:40:46;103354.88;;;4.58;100.00
18900;BME280;9582;52.018;6.306;2023-11-18T02:43:14;103341.06;;;4.58;100.00
18900;BME280;9582;52.018;6.306;2023-11-18T02:45:42;103357.41;;;4.55;100.00
18900;BME280;9582;52.018;6.306;2023-11-18T02:48:10;103361.78;;;4.58;100.00
18900;BME280;9582;52.018;6.306;2023-11-18T02:50:36;103356.59;;;4.56;100.00
18900;BME280;9582;52.018;6.306;2023-11-18T02:53:03;103354.88;;;4.57;100.00
18900;BME280;9582;52.018;6.306;2023-11-18T02:55:30;103354.81;;;4.55;100.00
18900;BME280;9582;52.018;6.306;2023-11-18T02:57:58;103336.66;;;4.54;100.00
18900;BME280;9582;52.018;6.306;2023-11-18T03:00:24;103336.59;;;4.51;100.00
18900;BME280;9582;52.018;6.306;2023-11-18T03:02:51;103341.75;;;4.49;100.00
18900;BME280;9582;52.018;6.306;2023-11-18T03:05:18;103350.38;;;4.48;100.00
18900;BME280;9582;52.018;6.306;2023-11-18T03:07:44;103343.44;;;4.47;100.00
18900;BME280;9582;52.018;6.306;2023-11-18T03:10:12;103346.84;;;4.46;100.00
18900;BME280;9582;52.018;6.306;2023-11-18T03:12:46;103339.97;;;4.47;100.00
18900;BME280;9582;52.018;6.306;2023-11-18T03:15:14;103322.72;;;4.47;100.00
18900;BME280;9582;52.018;6.306;2023-11-18T03:17:43;103326.19;;;4.48;100.00
18900;BME280;9582;52.018;6.306;2023-11-18T03:20:10;103324.47;;;4.48;100.00
18900;BME280;9582;52.018;6.306;2023-11-18T03:22:40;103333.94;;;4.48;100.00
18900;BME280;9582;52.018;6.306;2023-11-18T03:25:07;103336.56;;;4.49;100.00
18900;BME280;9582;52.018;6.306;2023-11-18T03:27:34;103343.44;;;4.47;100.00
18900;BME280;9582;52.018;6.306;2023-11-18T03:30:01;103330.47;;;4.46;100.00
18900;BME280;9582;52.018;6.306;2023-11-18T03:32:29;103334.78;;;4.45;100.00
18900;BME280;9582;52.018;6.306;2023-11-18T03:34:56;103337.31;;;4.44;100.00
18900;BME280;9582;52.018;6.306;2023-11-18T03:37:24;103349.38;;;4.43;100.00
18900;BME280;9582;52.018;6.306;2023-11-18T03:39:51;103348.53;;;4.43;100.00
18900;BME280;9582;52.018;6.306;2023-11-18T03:42:18;103345.13;;;4.45;100.00
18900;BME280;9582;52.018;6.306;2023-11-18T03:44:45;103345.97;;;4.44;100.00
18900;BME280;9582;52.018;6.306;2023-11-18T03:47:12;103351.16;;;4.44;100.00
18900;BME280;9582;52.018;6.306;2023-11-18T03:49:40;103350.25;;;4.42;100.00
18900;BME280;9582;52.018;6.306;2023-11-18T03:52:07;103349.38;;;4.42;100.00
18900;BME280;9582;52.018;6.306;2023-11-18T03:54:34;103356.19;;;4.38;100.00
18900;BME280;9582;52.018;6.306;2023-11-18T03:57:00;103354.47;;;4.39;100.00
18900;BME280;9582;52.018;6.306;2023-11-18T03:59:26;103361.44;;;4.41;100.00
18900;BME280;9582;52.018;6.306;2023-11-18T04:01:53;103355.44;;;4.44;100.00
18900;BME280;9582;52.018;6.306;2023-11-18T04:04:19;103339.97;;;4.47;100.00
18900;BME280;9582;52.018;6.306;2023-11-18T04:06:47;103314.94;;;4.49;100.00
18900;BME280;9582;52.018;6.306;2023-11-18T04:09:14;103314.13;;;4.50;100.00
18900;BME280;9582;52.018;6.306;2023-11-18T04:11:41;103328.78;;;4.49;100.00
18900;BME280;9582;52.018;6.306;2023-11-18T04:14:10;103321.00;;;4.49;100.00
18900;BME280;9582;52.018;6.306;2023-11-18T04:16:37;103303.75;;;4.48;100.00
18900;BME280;9582;52.018;6.306;2023-11-18T04:19:04;103306.34;;;4.48;100.00
18900;BME280;9582;52.018;6.306;2023-11-18T04:21:31;103292.50;;;4.48;100.00
18900;BME280;9582;52.018;6.306;2023-11-18T04:23:58;103274.38;;;4.49;100.00
18900;BME280;9582;52.018;6.306;2023-11-18T04:26:25;103281.38;;;4.53;100.00
18900;BME280;9582;52.018;6.306;2023-11-18T04:28:51;103273.63;;;4.55;100.00
18900;BME280;9582;52.018;6.306;2023-11-18T04:31:18;103277.13;;;4.57;100.00
18900;BME280;9582;52.018;6.306;2023-11-18T04:33:44;103291.00;;;4.59;100.00
18900;BME280;9582;52.018;6.306;2023-11-18T04:36:11;103286.69;;;4.59;100.00
18900;BME280;9582;52.018;6.306;2023-11-18T04:38:40;103285.88;;;4.62;100.00
18900;BME280;9582;52.018;6.306;2023-11-18T04:41:07;103275.50;;;4.63;100.00
18900;BME280;9582;52.018;6.306;2023-11-18T04:43:35;103276.44;;;4.65;100.00
18900;BME280;9582;52.018;6.306;2023-11-18T04:46:02;103268.63;;;4.64;100.00
18900;BME280;9582;52.018;6.306;2023-11-18T04:48:30;103257.38;;;4.63;100.00
18900;BME280;9582;52.018;6.306;2023-11-18T04:50:58;103252.19;;;4.63;100.00
18900;BME280;9582;52.018;6.306;2023-11-18T04:53:25;103246.94;;;4.60;100.00
18900;BME280;9582;52.018;6.306;2023-11-18T04:55:51;103243.47;;;4.58;100.00
18900;BME280;9582;52.018;6.306;2023-11-18T04:58:20;103238.28;;;4.58;100.00
18900;BME280;9582;52.018;6.306;2023-11-18T05:00:46;103239.09;;;4.56;100.00
18900;BME280;9582;52.018;6.306;2023-11-18T05:03:13;103219.25;;;4.56;100.00
18900;BME280;9582;52.018;6.306;2023-11-18T05:05:40;103234.75;;;4.55;100.00
18900;BME280;9582;52.018;6.306;2023-11-18T05:08:07;103245.06;;;4.52;100.00
18900;BME280;9582;52.018;6.306;2023-11-18T05:10:34;103238.97;;;4.50;100.00
18900;BME280;9582;52.018;6.306;2023-11-18T05:13:02;103232.91;;;4.48;100.00
18900;BME280;9582;52.018;6.306;2023-11-18T05:15:30;103224.25;;;4.47;100.00
18900;BME280;9582;52.018;6.306;2023-11-18T05:17:56;103221.66;;;4.46;100.00
18900;BME280;9582;52.018;6.306;2023-11-18T05:20:23;103225.09;;;4.46;100.00
18900;BME280;9582;52.018;6.306;2023-11-18T05:22:50;103215.59;;;4.45;100.00
18900;BME280;9582;52.018;6.306;2023-11-18T05:25:16;103213.84;;;4.44;100.00
18900;BME280;9582;52.018;6.306;2023-11-18T05:27:43;103227.69;;;4.46;100.00
18900;BME280;9582;52.018;6.306;2023-11-18T05:30:10;103244.97;;;4.47;100.00
18900;BME280;9582;52.018;6.306;2023-11-18T05:32:38;103238.09;;;4.48;100.00
18900;BME280;9582;52.018;6.306;2023-11-18T05:35:06;103245.88;;;4.49;100.00
18900;BME280;9582;52.018;6.306;2023-11-18T05:37:36;103242.41;;;4.49;100.00
18900;BME280;9582;52.018;6.306;2023-11-18T05:40:04;103241.63;;;4.51;100.00
18900;BME280;9582;52.018;6.306;2023-11-18T05:42:32;103231.25;;;4.51;100.00
18900;BME280;9582;52.018;6.306;2023-11-18T05:45:01;103220.91;;;4.51;100.00
18900;BME280;9582;52.018;6.306;2023-11-18T05:47:27;103206.19;;;4.52;100.00
18900;BME280;9582;52.018;6.306;2023-11-18T05:49:55;103202.75;;;4.51;100.00
18900;BME280;9582;52.018;6.306;2023-11-18T05:52:22;103195.81;;;4.52;100.00
18900;BME280;9582;52.018;6.306;2023-11-18T05:54:49;103212.25;;;4.52;100.00
18900;BME280;9582;52.018;6.306;2023-11-18T05:57:15;103214.00;;;4.53;100.00
18900;BME280;9582;52.018;6.306;2023-11-18T05:59:42;103220.09;;;4.55;100.00
18900;BME280;9582;52.018;6.306;2023-11-18T06:02:09;103220.91;;;4.54;100.00
18900;BME280;9582;52.018;6.306;2023-11-18T06:04:38;103203.66;;;4.55;100.00
18900;BME280;9582;52.018;6.306;2023-11-18T06:07:08;103201.06;;;4.55;100.00
18900;BME280;9582;52.018;6.306;2023-11-18T06:09:35;103203.72;;;4.56;100.00
18900;BME280;9582;52.018;6.306;2023-11-18T06:12:01;103187.28;;;4.56;100.00
18900;BME280;9582;52.018;6.306;2023-11-18T06:14:31;103171.75;;;4.57;100.00
18900;BME280;9582;52.018;6.306;2023-11-18T06:16:57;103174.34;;;4.57;100.00
18900;BME280;9582;52.018;6.306;2023-11-18T06:19:25;103176.09;;;4.58;100.00
18900;BME280;9582;52.018;6.306;2023-11-18T06:21:52;103189.94;;;4.60;100.00
18900;BME280;9582;52.018;6.306;2023-11-18T06:24:20;103196.00;;;4.59;100.00
18900;BME280;9582;52.018;6.306;2023-11-18T06:26:47;103179.63;;;4.62;100.00
18900;BME280;9582;52.018;6.306;2023-11-18T06:29:14;103198.69;;;4.65;100.00
18900;BME280;9582;52.018;6.306;2023-11-18T06:31:41;103194.34;;;4.66;100.00
18900;BME280;9582;52.018;6.306;2023-11-18T06:34:08;103182.28;;;4.66;100.00
18900;BME280;9582;52.018;6.306;2023-11-18T06:36:34;103188.34;;;4.68;100.00
18900;BME280;9582;52.018;6.306;2023-11-18T06:39:01;103191.00;;;4.72;100.00
18900;BME280;9582;52.018;6.306;2023-11-18T06:41:31;103187.63;;;4.74;100.00
18900;BME280;9582;52.018;6.306;2023-11-18T06:44:00;103182.44;;;4.77;100.00
18900;BME280;9582;52.018;6.306;2023-11-18T06:46:34;103205.00;;;4.80;100.00
18900;BME280;9582;52.018;6.306;2023-11-18T06:49:02;103198.94;;;4.81;100.00
18900;BME280;9582;52.018;6.306;2023-11-18T06:51:30;103217.13;;;4.84;100.00
18900;BME280;9582;52.018;6.306;2023-11-18T06:54:00;103200.75;;;4.85;100.00
18900;BME280;9582;52.018;6.306;2023-11-18T06:56:29;103212.00;;;4.87;100.00
18900;BME280;9582;52.018;6.306;2023-11-18T06:58:57;103212.91;;;4.89;100.00
18900;BME280;9582;52.018;6.306;2023-11-18T07:01:23;103199.97;;;4.90;100.00
18900;BME280;9582;52.018;6.306;2023-11-18T07:03:50;103195.69;;;4.92;100.00
18900;BME280;9582;52.018;6.306;2023-11-18T07:06:18;103200.91;;;4.94;100.00
18900;BME280;9582;52.018;6.306;2023-11-18T07:08:47;103209.56;;;4.96;100.00
18900;BME280;9582;52.018;6.306;2023-11-18T07:11:14;103208.69;;;4.97;100.00
18900;BME280;9582;52.018;6.306;2023-11-18T07:13:41;103206.16;;;5.00;100.00
18900;BME280;9582;52.018;6.306;2023-11-18T07:16:09;103209.63;;;5.00;100.00
18900;BME280;9582;52.018;6.306;2023-11-18T07:18:36;103211.41;;;5.03;100.00
18900;BME280;9582;52.018;6.306;2023-11-18T07:21:04;103190.66;;;5.03;100.00
18900;BME280;9582;52.018;6.306;2023-11-18T07:23:31;103163.06;;;5.05;100.00
18900;BME280;9582;52.018;6.306;2023-11-18T07:25:57;103157.88;;;5.06;100.00
18900;BME280;9582;52.018;6.306;2023-11-18T07:28:24;103157.91;;;5.08;100.00
18900;BME280;9582;52.018;6.306;2023-11-18T07:30:52;103149.25;;;5.09;100.00
18900;BME280;9582;52.018;6.306;2023-11-18T07:33:20;103150.16;;;5.11;100.00
18900;BME280;9582;52.018;6.306;2023-11-18T07:35:47;103148.44;;;5.11;100.00
18900;BME280;9582;52.018;6.306;2023-11-18T07:38:14;103148.47;;;5.14;100.00
18900;BME280;9582;52.018;6.306;2023-11-18T07:40:41;103134.66;;;5.15;100.00
18900;BME280;9582;52.018;6.306;2023-11-18T07:43:11;103138.16;;;5.16;100.00
18900;BME280;9582;52.018;6.306;2023-11-18T07:45:38;103134.69;;;5.17;100.00
18900;BME280;9582;52.018;6.306;2023-11-18T07:48:07;103143.34;;;5.17;100.00
18900;BME280;9582;52.018;6.306;2023-11-18T07:50:36;103136.44;;;5.19;100.00
18900;BME280;9582;52.018;6.306;2023-11-18T07:53:03;103142.50;;;5.20;100.00
18900;BME280;9582;52.018;6.306;2023-11-18T07:55:31;103128.69;;;5.21;100.00
18900;BME280;9582;52.018;6.306;2023-11-18T07:57:59;103136.47;;;5.21;100.00
18900;BME280;9582;52.018;6.306;2023-11-18T08:00:26;103144.28;;;5.22;100.00
18900;BME280;9582;52.018;6.306;2023-11-18T08:02:56;103144.28;;;5.22;100.00
18900;BME280;9582;52.018;6.306;2023-11-18T08:05:25;103143.44;;;5.22;100.00
18900;BME280;9582;52.018;6.306;2023-11-18T08:07:54;103141.72;;;5.24;100.00
18900;BME280;9582;52.018;6.306;2023-11-18T08:10:21;103135.66;;;5.23;100.00
18900;BME280;9582;52.018;6.306;2023-11-18T08:12:50;103149.50;;;5.24;100.00
18900;BME280;9582;52.018;6.306;2023-11-18T08:15:17;103147.78;;;5.24;100.00
18900;BME280;9582;52.018;6.306;2023-11-18T08:17:44;103141.72;;;5.25;100.00
18900;BME280;9582;52.018;6.306;2023-11-18T08:20:11;103144.34;;;5.27;100.00
18900;BME280;9582;52.018;6.306;2023-11-18T08:22:40;103142.66;;;5.29;100.00
18900;BME280;9582;52.018;6.306;2023-11-18T08:25:09;103142.66;;;5.29;100.00
18900;BME280;9582;52.018;6.306;2023-11-18T08:27:38;103135.75;;;5.31;100.00
18900;BME280;9582;52.018;6.306;2023-11-18T08:30:06;103130.56;;;5.31;100.00
18900;BME280;9582;52.018;6.306;2023-11-18T08:32:36;103127.13;;;5.32;100.00
18900;BME280;9582;52.018;6.306;2023-11-18T08:35:05;103117.63;;;5.33;100.00
18900;BME280;9582;52.018;6.306;2023-11-18T08:37:33;103120.22;;;5.33;100.00
18900;BME280;9582;52.018;6.306;2023-11-18T08:40:00;103130.63;;;5.36;100.00
18900;BME280;9582;52.018;6.306;2023-11-18T08:42:28;103125.47;;;5.37;100.00
18900;BME280;9582;52.018;6.306;2023-11-18T08:44:57;103103.84;;;5.38;100.00
18900;BME280;9582;52.018;6.306;2023-11-18T08:47:24;103103.00;;;5.39;100.00
18900;BME280;9582;52.018;6.306;2023-11-18T08:49:50;103102.16;;;5.40;100.00
18900;BME280;9582;52.018;6.306;2023-11-18T08:52:17;103084.00;;;5.40;100.00
18900;BME280;9582;52.018;6.306;2023-11-18T08:54:44;103084.88;;;5.41;100.00
18900;BME280;9582;52.018;6.306;2023-11-18T08:57:24;103081.44;;;5.42;100.00
18900;BME280;9582;52.018;6.306;2023-11-18T08:59:52;103091.81;;;5.42;100.00
18900;BME280;9582;52.018;6.306;2023-11-18T09:02:19;103081.38;;;5.40;100.00
18900;BME280;9582;52.018;6.306;2023-11-18T09:04:48;103093.53;;;5.43;100.00
18900;BME280;9582;52.018;6.306;2023-11-18T09:07:15;103089.22;;;5.43;100.00
18900;BME280;9582;52.018;6.306;2023-11-18T09:09:43;103074.53;;;5.44;100.00
18900;BME280;9582;52.018;6.306;2023-11-18T09:12:11;103077.13;;;5.45;100.00
18900;BME280;9582;52.018;6.306;2023-11-18T09:14:40;103081.47;;;5.48;100.00
18900;BME280;9582;52.018;6.306;2023-11-18T09:17:09;103066.81;;;5.51;100.00
18900;BME280;9582;52.018;6.306;2023-11-18T09:19:35;103059.97;;;5.56;100.00
18900;BME280;9582;52.018;6.306;2023-11-18T09:22:02;103064.34;;;5.60;100.00
18900;BME280;9582;52.018;6.306;2023-11-18T09:24:30;103063.53;;;5.64;100.00
18900;BME280;9582;52.018;6.306;2023-11-18T09:26:58;103076.53;;;5.67;100.00
18900;BME280;9582;52.018;6.306;2023-11-18T09:29:25;103074.84;;;5.71;100.00
18900;BME280;9582;52.018;6.306;2023-11-18T09:31:51;103061.94;;;5.75;100.00
18900;BME280;9582;52.018;6.306;2023-11-18T09:34:20;103064.53;;;5.77;100.00
18900;BME280;9582;52.018;6.306;2023-11-18T09:36:53;103080.16;;;5.83;100.00
18900;BME280;9582;52.018;6.306;2023-11-18T09:39:20;103056.81;;;5.84;100.00
18900;BME280;9582;52.018;6.306;2023-11-18T09:42:04;103047.38;;;5.87;100.00
18900;BME280;9582;52.018;6.306;2023-11-18T09:44:35;103060.38;;;5.90;100.00
18900;BME280;9582;52.018;6.306;2023-11-18T09:47:07;103065.56;;;5.90;100.00
18900;BME280;9582;52.018;6.306;2023-11-18T09:49:40;103065.56;;;5.90;100.00
18900;BME280;9582;52.018;6.306;2023-11-18T09:52:07;103083.75;;;5.91;100.00
18900;BME280;9582;52.018;6.306;2023-11-18T09:54:40;103080.31;;;5.94;100.00
18900;BME280;9582;52.018;6.306;2023-11-18T09:57:16;103065.59;;;5.96;100.00
18900;BME280;9582;52.018;6.306;2023-11-18T09:59:55;103060.44;;;5.97;100.00
18900;BME280;9582;52.018;6.306;2023-11-18T10:02:39;103050.06;;;5.99;100.00
18900;BME280;9582;52.018;6.306;2023-11-18T10:05:14;103043.19;;;6.01;100.00
18900;BME280;9582;52.018;6.306;2023-11-18T10:07:46;103051.84;;;6.03;100.00
18900;BME280;9582;52.018;6.306;2023-11-18T10:10:13;103060.50;;;6.05;100.00
18900;BME280;9582;52.018;6.306;2023-11-18T10:12:41;103050.16;;;6.08;100.00
18900;BME280;9582;52.018;6.306;2023-11-18T10:15:11;103042.38;;;6.09;100.00
18900;BME280;9582;52.018;6.306;2023-11-18T10:17:39;103029.44;;;6.12;100.00
18900;BME280;9582;52.018;6.306;2023-11-18T10:20:21;103013.84;;;6.14;100.00
18900;BME280;9582;52.018;6.306;2023-11-18T10:23:05;102996.53;;;6.16;100.00
18900;BME280;9582;52.018;6.306;2023-11-18T10:25:32;102979.22;;;6.16;100.00
18900;BME280;9582;52.018;6.306;2023-11-18T10:28:00;102997.44;;;6.18;100.00
18900;BME280;9582;52.018;6.306;2023-11-18T10:30:27;102985.31;;;6.21;100.00
18900;BME280;9582;52.018;6.306;2023-11-18T10:32:58;102972.38;;;6.26;100.00
18900;BME280;9582;52.018;6.306;2023-11-18T10:35:32;102984.53;;;6.30;100.00
18900;BME280;9582;52.018;6.306;2023-11-18T10:38:01;102974.19;;;6.34;100.00
18900;BME280;9582;52.018;6.306;2023-11-18T10:40:31;102957.75;;;6.37;100.00
18900;BME280;9582;52.018;6.306;2023-11-18T10:43:00;102936.97;;;6.42;100.00
18900;BME280;9582;52.018;6.306;2023-11-18T10:45:27;102940.44;;;6.47;100.00
18900;BME280;9582;52.018;6.306;2023-11-18T10:47:54;102931.81;;;6.49;100.00
18900;BME280;9582;52.018;6.306;2023-11-18T10:50:22;102923.19;;;6.53;100.00
18900;BME280;9582;52.018;6.306;2023-11-18T10:52:56;102913.66;;;6.55;100.00
18900;BME280;9582;52.018;6.306;2023-11-18T10:55:22;102919.72;;;6.56;100.00
18900;BME280;9582;52.018;6.306;2023-11-18T10:57:50;102906.75;;;6.57;100.00
18900;BME280;9582;52.018;6.306;2023-11-18T11:00:18;102911.06;;;6.55;100.00
18900;BME280;9582;52.018;6.306;2023-11-18T11:02:45;102919.72;;;6.54;100.00
18900;BME280;9582;52.018;6.306;2023-11-18T11:05:27;102925.78;;;6.53;100.00
18900;BME280;9582;52.018;6.306;2023-11-18T11:07:59;102923.19;;;6.53;100.00
18900;BME280;9582;52.018;6.306;2023-11-18T11:10:28;102907.59;;;6.53;100.00
18900;BME280;9582;52.018;6.306;2023-11-18T11:12:55;102890.25;;;6.54;100.00
18900;BME280;9582;52.018;6.306;2023-11-18T11:15:29;102880.75;;;6.54;100.00
18900;BME280;9582;52.018;6.306;2023-11-18T11:18:03;102884.22;;;6.56;100.00
18900;BME280;9582;52.018;6.306;2023-11-18T11:20:37;102886.81;;;6.59;100.00
18900;BME280;9582;52.018;6.306;2023-11-18T11:23:14;102860.81;;;6.61;100.00
18900;BME280;9582;52.018;6.306;2023-11-18T11:25:54;102855.63;;;6.61;100.00
18900;BME280;9582;52.018;6.306;2023-11-18T11:28:23;102862.56;;;6.63;100.00
18900;BME280;9582;52.018;6.306;2023-11-18T11:30:55;102852.16;;;6.62;100.00
18900;BME280;9582;52.018;6.306;2023-11-18T11:33:29;102847.84;;;6.65;100.00
18900;BME280;9582;52.018;6.306;2023-11-18T11:36:07;102831.38;;;6.65;100.00
18900;BME280;9582;52.018;6.306;2023-11-18T11:38:38;102818.41;;;6.68;100.00
18900;BME280;9582;52.018;6.306;2023-11-18T11:41:05;102814.94;;;6.66;100.00
18900;BME280;9582;52.018;6.306;2023-11-18T11:43:34;102811.47;;;6.65;100.00
18900;BME280;9582;52.018;6.306;2023-11-18T11:46:01;102819.25;;;6.65;100.00
18900;BME280;9582;52.018;6.306;2023-11-18T11:48:36;102821.88;;;6.65;100.00
18900;BME280;9582;52.018;6.306;2023-11-18T11:51:10;102806.25;;;6.65;100.00
18900;BME280;9582;52.018;6.306;2023-11-18T11:53:46;102801.06;;;6.65;100.00
18900;BME280;9582;52.018;6.306;2023-11-18T11:56:14;102787.19;;;6.66;100.00
18900;BME280;9582;52.018;6.306;2023-11-18T11:58:46;102766.38;;;6.66;100.00
18900;BME280;9582;52.018;6.306;2023-11-18T12:01:23;102743.88;;;6.68;100.00
18900;BME280;9582;52.018;6.306;2023-11-18T12:03:56;102750.81;;;6.69;100.00
18900;BME280;9582;52.018;6.306;2023-11-18T12:06:23;102735.22;;;6.72;100.00
18900;BME280;9582;52.018;6.306;2023-11-18T12:08:52;102723.94;;;6.72;100.00
18900;BME280;9582;52.018;6.306;2023-11-18T12:11:20;102723.97;;;6.76;100.00
18900;BME280;9582;52.018;6.306;2023-11-18T12:14:00;102715.28;;;6.77;100.00
18900;BME280;9582;52.018;6.306;2023-11-18T12:16:57;102702.28;;;6.77;100.00
18900;BME280;9582;52.018;6.306;2023-11-18T12:19:29;102722.25;;;6.80;100.00
18900;BME280;9582;52.018;6.306;2023-11-18T12:21:56;102721.38;;;6.79;100.00
18900;BME280;9582;52.018;6.306;2023-11-18T12:24:27;102721.38;;;6.82;100.00
18900;BME280;9582;52.018;6.306;2023-11-18T12:26:54;102722.22;;;6.81;100.00
18900;BME280;9582;52.018;6.306;2023-11-18T12:29:30;102718.75;;;6.84;100.00
18900;BME280;9582;52.018;6.306;2023-11-18T12:31:57;102704.88;;;6.83;100.00
18900;BME280;9582;52.018;6.306;2023-11-18T12:34:23;102678.88;;;6.86;100.00
18900;BME280;9582;52.018;6.306;2023-11-18T12:37:12;102672.81;;;6.90;100.00
18900;BME280;9582;52.018;6.306;2023-11-18T12:40:20;102666.75;;;6.93;100.00
18900;BME280;9582;52.018;6.306;2023-11-18T12:43:01;102671.09;;;6.98;100.00
18900;BME280;9582;52.018;6.306;2023-11-18T12:48:28;102645.09;;;6.98;100.00
18900;BME280;9582;52.018;6.306;2023-11-18T12:50:58;102634.69;;;6.98;100.00
18900;BME280;9582;52.018;6.306;2023-11-18T12:53:25;102610.41;;;7.00;100.00
18900;BME280;9582;52.018;6.306;2023-11-18T12:55:55;102599.13;;;7.01;100.00
18900;BME280;9582;52.018;6.306;2023-11-18T12:58:21;102589.59;;;7.01;100.00
18900;BME280;9582;52.018;6.306;2023-11-18T13:00:48;102603.44;;;7.03;100.00
18900;BME280;9582;52.018;6.306;2023-11-18T13:03:15;102589.59;;;7.03;100.00
18900;BME280;9582;52.018;6.306;2023-11-18T13:05:43;102589.56;;;7.06;100.00
18900;BME280;9582;52.018;6.306;2023-11-18T13:08:11;102555.75;;;7.07;100.00
18900;BME280;9582;52.018;6.306;2023-11-18T13:10:40;102542.75;;;7.09;100.00